Latest Weather Observations for Pallamana

IDS60801

Issued at 6:51 am CST Friday 14 June 2024 (issued every 10 minutes, with the page automatically refreshed every 10 minutes)

About weather observations | Map of weather stations | Latest weather observations for SA | Other Formats
Station Details ID: 024584 Name: PALLAMANA AERODROME Lat: -35.06 Lon: 139.23 Height: 45.0 m
Data from the previous 72 hours. | See also: Recent months at Pallamana
Date/Time
CST
Temp
°C
App
Temp
°C
Dew
Point
°C
Rel
Hum
%
Delta-T
°C
Wind Press
QNH
hPa
Press
MSL
hPa
Rain since
9am
mm
Dir  Spd
km/h
Gust
km/h
Spd
kts
Gust
kts
14/06:30am 11.1 8.6 11.1 100 0.0 N 15 19 8 10 1015.2 1015.2 10.6
14/06:00am 10.8 8.6 10.8 100 0.0 NNE 13 15 7 8 1015.2 1015.2 10.4
14/05:55am 10.8 9.0 10.8 100 0.0 NNE 11 15 6 8 1015.2 1015.2 10.4
14/05:30am 10.6 8.3 10.6 100 0.0 NNE 13 15 7 8 1015.3 1015.3 9.2
14/05:22am 10.5 8.2 10.5 100 0.0 NNE 13 15 7 8 1015.4 1015.4 8.8
14/05:00am 10.4 8.1 10.4 100 0.0 NE 13 17 7 9 1015.6 1015.6 7.4
14/04:30am 10.3 8.3 10.3 100 0.0 NE 11 15 6 8 1015.7 1015.7 6.4
14/04:19am 10.2 8.6 10.2 100 0.0 NNE 9 13 5 7 1015.9 1015.9 5.8
14/04:13am 10.1 8.5 10.1 100 0.0 NE 9 11 5 6 1016.0 1016.0 5.6
14/04:00am 10.1 8.5 10.1 100 0.0 ENE 9 11 5 6 1016.0 1016.0 5.6
14/03:30am 10.2 8.9 10.1 99 0.1 NNE 7 9 4 5 1016.6 1016.6 5.4
14/03:12am 10.3 9.2 10.1 99 0.1 E 6 7 3 4 1016.4 1016.4 5.2
14/03:00am 10.3 9.2 10.0 98 0.2 E 6 7 3 4 1016.5 1016.5 4.8
14/02:30am 10.4 10.1 10.1 98 0.2 ENE 2 6 1 3 1016.9 1016.9 4.4
14/02:00am 10.5 8.4 9.7 95 0.4 NE 11 15 6 8 1017.0 1017.0 4.4
14/01:30am 10.6 8.6 10.0 96 0.3 NNE 11 13 6 7 1017.3 1017.3 4.2
14/01:00am 10.5 9.3 10.2 98 0.2 NNE 7 9 4 5 1017.7 1017.7 3.6
14/12:30am 10.8 9.8 10.2 96 0.3 NNE 6 7 3 4 1018.1 1018.1 2.6
14/12:00am 10.8 9.7 9.9 94 0.5 NE 6 7 3 4 1018.3 1018.3 2.4
 
Date/Time
CST
Temp
°C
App
Temp
°C
Dew
Point
°C
Rel
Hum
%
Delta-T
°C
Wind Press
QNH
hPa
Press
MSL
hPa
Rain since
9am
mm
Dir  Spd
km/h
Gust
km/h
Spd
kts
Gust
kts
13/11:30pm 10.7 10.3 9.8 94 0.5 NNE 2 6 1 3 1018.5 1018.5 2.4
13/11:00pm 10.8 9.7 10.0 95 0.4 NE 6 9 3 5 1018.8 1018.8 2.4
13/10:30pm 10.6 9.5 10.1 97 0.3 ESE 6 7 3 4 1019.0 1019.0 2.2
13/10:00pm 10.8 9.8 10.3 97 0.3 SE 6 6 3 3 1019.2 1019.2 2.2
13/09:30pm 10.9 11.1 10.4 97 0.3 CALM 0 0 0 0 1019.6 1019.6 2.2
13/09:03pm 11.1 11.3 10.5 96 0.3 CALM 0 0 0 0 1019.8 1019.8 2.0
13/09:00pm 11.1 11.3 10.5 96 0.3 CALM 0 0 0 0 1019.8 1019.8 2.0
13/08:45pm 11.2 11.4 10.4 95 0.4 CALM 0 0 0 0 1020.0 1020.0 1.6
13/08:30pm 11.3 11.4 10.2 93 0.6 CALM 0 0 0 0 1020.0 1020.0 1.0
13/08:00pm 11.8 11.8 9.9 88 1.0 CALM 0 0 0 0 1020.0 1020.0 0.2
13/07:30pm 11.9 10.7 9.6 86 1.2 SSE 6 9 3 5 1020.1 1020.1 0.0
13/07:00pm 12.0 10.6 9.7 86 1.2 SSE 7 7 4 4 1020.1 1020.1 0.0
13/06:30pm 12.1 11.3 9.7 85 1.2 SE 4 6 2 3 1019.8 1019.8 0.0
13/06:00pm 12.4 11.2 9.6 83 1.4 E 6 7 3 4 1019.6 1019.6 0.0
13/05:30pm 12.6 11.2 9.4 81 1.6 NE 7 7 4 4 1019.5 1019.5 0.0
13/05:00pm 13.0 11.7 9.3 78 1.9 NNE 6 9 3 5 1019.3 1019.3 0.0
13/04:30pm 13.2 11.3 9.1 76 2.1 NNE 9 11 5 6 1019.2 1019.2 0.0
13/04:00pm 13.4 10.7 8.9 74 2.3 NNE 13 15 7 8 1018.9 1018.9 0.0
13/03:30pm 13.5 10.4 9.0 74 2.3 NNE 15 17 8 9 1018.9 1018.9 0.0
13/03:00pm 13.2 10.4 8.7 74 2.3 NNE 13 15 7 8 1019.1 1019.1 0.0
13/02:30pm 13.1 10.0 8.8 75 2.2 N 15 17 8 9 1019.1 1019.1 0.0
13/02:00pm 13.0 9.8 8.5 74 2.2 NNE 15 19 8 10 1019.3 1019.3 0.0
13/01:30pm 13.3 10.6 8.8 74 2.3 NNE 13 17 7 9 1019.5 1019.5 0.0
13/01:00pm 13.1 10.3 8.6 74 2.3 NNE 13 17 7 9 1020.3 1020.3 0.0
13/12:30pm 12.7 10.0 8.8 77 1.9 NNE 13 17 7 9 1020.6 1020.6 0.0
13/12:00pm 12.1 9.8 8.9 81 1.6 NNE 11 13 6 7 1021.1 1021.1 0.0
13/11:30am 11.6 9.8 9.3 86 1.2 NNE 9 13 5 7 1021.7 1021.8 0.0
13/11:00am 11.0 9.0 8.8 86 1.1 NNE 9 13 5 7 1022.3 1022.4 0.0
13/10:30am 10.7 7.6 8.8 88 0.9 N 15 17 8 9 1023.0 1023.1 0.0
13/10:00am 10.4 8.0 8.8 90 0.8 NNE 11 15 6 8 1022.7 1022.8 0.0
13/09:30am 9.8 7.3 8.4 91 0.7 NE 11 13 6 7 1022.8 1022.9 0.0
13/09:00am 9.6 8.0 8.7 94 0.4 ENE 7 9 4 5 1023.0 1023.1 0.0
13/08:30am 8.8 8.5 8.8 100 0.0 CALM 0 7 0 4 1022.6 1022.7 0.0
13/08:00am 8.3 6.7 8.2 99 0.0 SSE 6 7 3 4 1022.9 1023.0 0.0
13/07:30am 8.1 7.6 8.0 99 0.0 CALM 0 0 0 0 1022.8 1022.9 0.0
13/07:00am 8.0 6.4 8.0 100 0.0 SSE 6 7 3 4 1022.6 1022.7 0.0
13/06:30am 7.9 7.4 7.8 99 0.0 CALM 0 0 0 0 1022.5 1022.6 0.0
13/06:00am 8.2 7.0 7.9 98 0.1 N 4 6 2 3 1022.2 1022.3 0.0
13/05:30am 8.1 6.5 7.8 98 0.1 N 6 7 3 4 1021.9 1022.0 0.0
13/05:00am 8.1 6.3 8.0 99 0.0 N 7 9 4 5 1021.9 1022.0 0.0
13/04:30am 8.0 6.4 7.9 99 0.0 NNW 6 7 3 4 1022.2 1022.3 0.0
13/04:00am 7.9 6.1 7.9 100 0.0 NW 7 9 4 5 1022.7 1022.8 0.0
13/03:30am 7.1 5.1 7.1 100 0.0 N 7 9 4 5 1022.7 1022.8 0.0
13/03:21am 7.1 5.1 7.1 100 0.0 N 7 9 4 5 1022.5 1022.6 0.0
13/03:00am 6.2 5.3 6.2 100 0.0 CALM 0 2 0 1 1022.9 1023.0 0.0
13/02:41am 6.1 4.0 5.8 98 0.1 SSE 6 7 3 4 1023.1 1023.2 0.0
13/02:30am 6.3 4.2 5.7 96 0.3 SSE 6 7 3 4 1023.3 1023.4 0.0
13/02:00am 7.4 6.7 7.0 97 0.2 CALM 0 0 0 0 1023.3 1023.4 0.0
13/01:30am 8.5 8.1 8.1 97 0.2 CALM 0 0 0 0 1023.3 1023.4 0.0
13/01:00am 8.7 8.3 8.3 97 0.2 CALM 0 4 0 2 1023.6 1023.7 0.0
13/12:30am 9.4 7.9 8.6 95 0.4 WNW 6 7 3 4 1023.6 1023.7 0.0
13/12:00am 9.5 7.5 8.7 95 0.4 W 9 11 5 6 1024.0 1024.1 0.0
 
Date/Time
CST
Temp
°C
App
Temp
°C
Dew
Point
°C
Rel
Hum
%
Delta-T
°C
Wind Press
QNH
hPa
Press
MSL
hPa
Rain since
9am
mm
Dir  Spd
km/h
Gust
km/h
Spd
kts
Gust
kts
12/11:30pm 9.0 7.9 8.4 96 0.3 WNW 4 11 2 6 1023.6 1023.7 0.0
12/11:00pm 8.9 7.7 8.1 95 0.4 WSW 4 7 2 4 1024.1 1024.2 0.0
12/10:30pm 8.9 7.3 8.1 95 0.4 SW 6 7 3 4 1024.3 1024.4 0.0
12/10:00pm 8.9 7.4 8.3 96 0.3 SW 6 7 3 4 1024.4 1024.5 0.0
12/09:30pm 8.4 6.7 7.5 94 0.4 SSW 6 7 3 4 1024.3 1024.4 0.0
12/09:00pm 9.4 7.2 7.8 90 0.8 W 9 13 5 7 1024.6 1024.7 0.0
12/08:30pm 9.2 6.8 7.2 87 0.9 W 9 13 5 7 1024.6 1024.7 0.0
12/08:00pm 9.6 7.0 7.7 88 0.9 WSW 11 13 6 7 1024.1 1024.2 0.0
12/07:30pm 9.9 8.2 8.2 89 0.8 SW 7 7 4 4 1023.9 1024.0 0.0
12/07:00pm 9.5 7.9 7.8 89 0.8 SSW 6 7 3 4 1023.8 1023.9 0.0
12/06:30pm 9.0 6.5 6.6 85 1.1 S 9 11 5 6 1023.6 1023.7 0.0
12/06:00pm 9.7 7.5 6.4 80 1.5 S 7 9 4 5 1023.4 1023.5 0.0
12/05:30pm 10.9 8.4 6.6 75 2.0 S 9 13 5 7 1023.5 1023.6 0.0
12/05:00pm 12.8 9.8 7.5 70 2.6 S 13 17 7 9 1023.3 1023.4 0.0
12/04:30pm 14.2 11.2 7.5 64 3.3 S 13 17 7 9 1023.2 1023.3 0.0
12/04:00pm 15.1 11.3 7.6 61 3.7 S 17 22 9 12 1023.0 1023.1 0.0
12/03:30pm 15.6 11.4 7.4 58 4.1 S 19 24 10 13 1022.9 1023.0 0.0
12/03:00pm 15.9 12.1 7.4 57 4.2 SSW 17 28 9 15 1022.6 1022.7 0.0
12/02:30pm 16.0 11.5 7.0 55 4.4 SSW 20 30 11 16 1022.4 1022.5 0.0
12/02:00pm 16.3 12.2 8.0 58 4.2 SSW 19 26 10 14 1022.5 1022.6 0.0
12/01:30pm 16.3 12.2 8.0 58 4.2 SSW 19 26 10 14 1022.5 1022.6 0.0
12/01:00pm 16.5 11.9 8.2 58 4.2 SSW 22 33 12 18 1022.5 1022.6 0.0
12/12:30pm 16.1 12.1 8.3 60 3.9 S 19 30 10 16 1022.7 1022.8 0.0
12/12:00pm 16.5 12.4 8.7 60 4.0 SSW 20 26 11 14 1022.8 1022.9 0.0
12/11:30am 15.3 9.7 7.1 58 4.0 SW 26 37 14 20 1022.6 1022.7 0.0
12/11:00am 14.9 10.8 8.8 67 3.1 SSW 20 32 11 17 1022.8 1022.9 0.0
12/10:30am 14.7 10.7 8.9 68 2.9 S 20 28 11 15 1022.9 1023.0 0.0
12/10:00am 14.6 10.7 9.4 71 2.7 S 20 30 11 16 1023.2 1023.3 0.0
12/09:30am 14.1 10.4 9.5 74 2.4 SW 19 24 10 13 1023.0 1023.1 0.0
12/09:00am 13.9 10.0 9.5 75 2.2 SSW 20 26 11 14 1022.2 1022.3 3.8
12/08:30am 13.0 11.3 11.2 89 0.9 SSW 11 15 6 8 1021.4 1021.5 3.8
12/08:00am 12.1 10.5 11.6 97 0.3 SSW 11 13 6 7 1021.0 1021.0 3.8
12/07:30am 12.3 10.3 11.5 95 0.4 SW 13 15 7 8 1021.2 1021.3 3.8
12/07:00am 12.5 9.8 11.6 94 0.5 SSW 17 20 9 11 1020.9 1020.9 3.6
12/06:30am 12.7 10.0 11.6 93 0.6 WSW 17 20 9 11 1020.8 1020.8 3.6
12/06:00am 12.8 10.9 11.9 94 0.5 SW 13 17 7 9 1020.1 1020.1 3.6
12/05:30am 12.6 10.3 11.8 95 0.4 SW 15 19 8 10 1019.9 1019.9 3.6
12/05:17am 12.6 10.0 12.0 96 0.3 WSW 17 20 9 11 1019.7 1019.7 3.6
12/05:00am 12.4 9.2 11.9 97 0.3 SW 20 32 11 17 1019.6 1019.6 3.6
12/04:51am 12.8 10.1 11.7 93 0.6 SW 17 32 9 17 1019.6 1019.6 3.6
12/04:30am 12.1 10.1 10.2 88 1.0 WSW 11 11 6 6 1019.1 1019.1 3.6
12/04:00am 12.8 10.2 10.7 87 1.1 WSW 15 17 8 9 1018.8 1018.8 3.6
12/03:30am 12.9 10.7 10.8 87 1.1 WSW 13 17 7 9 1018.3 1018.3 3.6
12/03:00am 12.9 10.8 11.0 88 1.0 SW 13 17 7 9 1018.6 1018.6 3.6
12/02:30am 11.2 9.1 9.8 91 0.7 SW 11 11 6 6 1018.3 1018.3 3.6
12/02:00am 12.9 10.6 10.4 85 1.3 W 13 15 7 8 1018.2 1018.2 3.6
12/01:30am 13.6 11.3 10.6 82 1.6 W 13 19 7 10 1017.6 1017.6 3.6
12/01:00am 13.9 11.0 11.1 83 1.5 W 17 24 9 13 1017.5 1017.5 3.6
12/12:30am 13.7 10.5 11.2 85 1.3 WSW 19 26 10 14 1017.4 1017.4 3.6
12/12:00am 13.6 10.4 11.1 85 1.3 WSW 19 26 10 14 1017.3 1017.3 3.6
 
Date/Time
CST
Temp
°C
App
Temp
°C
Dew
Point
°C
Rel
Hum
%
Delta-T
°C
Wind Press
QNH
hPa
Press
MSL
hPa
Rain since
9am
mm
Dir  Spd
km/h
Gust
km/h
Spd
kts
Gust
kts
11/11:30pm 13.8 11.0 11.3 85 1.3 W 17 22 9 12 1017.4 1017.4 3.6
11/11:00pm 12.3 11.3 10.9 91 0.7 W 7 9 4 5 1017.5 1017.5 3.6
11/10:30pm 11.7 10.7 10.3 91 0.7 W 6 7 3 4 1017.2 1017.2 3.6
11/10:00pm 13.1 12.0 10.6 85 1.3 WNW 7 9 4 5 1017.3 1017.3 3.6
11/09:30pm 13.4 12.4 11.1 86 1.2 W 7 9 4 5 1017.2 1017.2 3.6
11/09:00pm 13.7 12.8 11.2 85 1.3 WNW 7 11 4 6 1017.4 1017.4 3.6
11/08:30pm 13.8 12.4 11.0 83 1.5 WSW 9 13 5 7 1017.2 1017.2 3.6
11/08:00pm 14.2 12.4 11.0 81 1.7 W 11 15 6 8 1017.0 1017.0 3.6
11/07:30pm 14.3 11.8 10.9 80 1.8 W 15 20 8 11 1017.0 1017.0 3.6
11/07:00pm 14.7 12.3 11.5 81 1.7 W 15 20 8 11 1016.6 1016.6 3.6
11/06:30pm 14.6 12.5 11.0 79 1.9 W 13 17 7 9 1016.3 1016.3 3.6
11/06:00pm 15.1 12.9 10.9 76 2.2 W 13 19 7 10 1016.1 1016.1 3.6
11/05:30pm 15.3 12.4 10.9 75 2.3 W 17 24 9 13 1015.6 1015.6 3.6
11/05:00pm 16.0 12.6 11.2 73 2.6 W 20 28 11 15 1015.4 1015.4 3.6
11/04:30pm 16.8 10.9 10.6 67 3.3 W 32 43 17 23 1015.2 1015.2 3.6
11/04:00pm 17.4 12.4 11.0 66 3.5 W 28 43 15 23 1014.7 1014.7 3.6
11/03:30pm 17.8 12.9 11.4 66 3.5 W 28 37 15 20 1014.1 1014.1 3.6
11/03:00pm 17.7 13.0 11.9 69 3.2 W 28 44 15 24 1014.1 1014.1 3.6
11/02:30pm 17.6 12.7 12.5 72 2.8 W 30 43 16 23 1013.8 1013.8 3.6
11/02:00pm 16.5 14.1 13.8 84 1.5 WNW 19 30 10 16 1013.8 1013.8 3.6
11/01:43pm 15.5 13.0 13.5 88 1.1 WNW 19 33 10 18 1013.8 1013.8 3.6
11/01:30pm 14.6 10.8 13.5 93 0.6 W 26 39 14 21 1014.3 1014.3 3.6
11/01:10pm 15.1 10.1 13.3 89 1.0 W 32 43 17 23 1014.1 1014.1 1.2
11/01:00pm 19.2 14.9 10.7 58 4.6 WNW 24 35 13 19 1013.7 1013.7 0.0
11/12:30pm 19.6 14.3 11.1 58 4.7 WNW 30 50 16 27 1014.2 1014.2 0.0
11/12:16pm 19.4 13.3 10.4 56 4.9 WNW 33 52 18 28 1014.2 1014.2 0.0
11/12:00pm 19.7 13.4 9.6 52 5.4 WNW 33 44 18 24 1014.1 1014.1 0.0
11/11:30am 19.5 13.0 10.2 55 5.0 WNW 35 56 19 30 1014.5 1014.5 0.0
11/11:18am 19.5 13.6 10.5 56 4.9 WNW 32 52 17 28 1014.5 1014.5 0.0
11/11:00am 19.1 13.2 11.2 60 4.3 WNW 33 44 18 24 1014.6 1014.6 0.0
11/10:30am 18.9 13.9 11.0 60 4.3 WNW 28 39 15 21 1014.7 1014.7 0.0
11/10:00am 17.9 14.1 11.0 64 3.7 WNW 22 33 12 18 1014.7 1014.7 0.0
11/09:30am 17.2 13.6 10.6 65 3.5 NW 20 32 11 17 1014.7 1014.7 0.0
11/09:00am 17.1 13.4 10.0 63 3.8 WNW 20 30 11 16 1014.3 1014.3 0.0
11/08:30am 16.9 13.5 9.1 60 4.0 WNW 17 28 9 15 1014.3 1014.3 0.0
11/08:00am 16.9 12.9 9.1 60 4.0 WNW 20 30 11 16 1013.8 1013.8 0.0
11/07:30am 17.0 12.1 8.4 57 4.4 WNW 24 33 13 18 1013.9 1013.9 0.0
11/07:00am 17.0 12.3 7.6 54 4.7 WNW 22 35 12 19 1014.0 1014.0 0.0

Other formats

Comma delimited format used in spreadsheet applications
http://www.bom.gov.au/fwo/IDS60801/IDS60801.95818.axf

JavaScript Object Notation format (JSON) in row-major order
http://www.bom.gov.au/fwo/IDS60801/IDS60801.95818.json

Data quality

Most of these data are generated automatically and are frequently updated. Quality checks on data are not normally performed. It is possible for incorrect values to appear. Refer to information at About Latest Weather Observations and please check the disclaimer before using these data.